Time;durP1;ratioP1;P1;durP2;ratioP2;P2;SDS_P1;SDS_P2;PMS_P1;PMS_P2;Temp;Humidity;BMP_temperature;BMP_pressure;BME280_temperature;BME280_humidity;BME280_pressure;Samples;Min_cycle;Max_cycle;Signal;HPM_P1;HPM_P2
2023/09/09 00:01:39;;;;;;;9.27;5.07;;;;;;;25.18;74.14;101150.25;7355880;19;20059;-67
2023/09/09 00:04:07;;;;;;;7.97;4.93;;;;;;;25.21;74.14;101157.03;7354430;19;20034;-67
2023/09/09 00:06:34;;;;;;;8.55;5.00;;;;;;;25.19;73.92;101160.00;7354113;19;20014;-67
2023/09/09 00:09:01;;;;;;;7.18;4.50;;;;;;;25.17;74.56;101166.66;7353408;19;20034;-66
2023/09/09 00:11:30;;;;;;;8.43;5.15;;;;;;;25.13;74.30;101160.94;7363455;19;20015;-67
2023/09/09 00:13:57;;;;;;;8.35;5.10;;;;;;;25.10;74.17;101147.94;7365300;19;20685;-67
2023/09/09 00:16:24;;;;;;;9.43;5.50;;;;;;;25.08;74.22;101158.16;7357942;19;20022;-68
2023/09/09 00:18:52;;;;;;;10.77;5.43;;;;;;;25.07;74.48;101160.03;7361541;19;20018;-67
2023/09/09 00:21:20;;;;;;;8.15;4.90;;;;;;;25.06;74.20;101160.25;7362908;19;20369;-68
2023/09/09 00:23:48;;;;;;;9.68;5.38;;;;;;;25.05;74.99;101164.00;7361039;19;20027;-68
2023/09/09 00:26:15;;;;;;;9.27;4.93;;;;;;;25.04;74.77;101159.69;7359805;19;20015;-68
2023/09/09 00:28:42;;;;;;;11.13;5.22;;;;;;;25.02;75.42;101156.41;7361558;19;21233;-68
2023/09/09 00:31:09;;;;;;;8.90;5.00;;;;;;;25.00;75.30;101156.66;7358650;19;20130;-67
2023/09/09 00:33:36;;;;;;;9.48;5.22;;;;;;;24.97;75.12;101151.75;7363078;19;20346;-67
2023/09/09 00:36:04;;;;;;;9.18;5.43;;;;;;;24.96;75.29;101151.97;7356390;19;20022;-67
2023/09/09 00:38:32;;;;;;;7.68;5.28;;;;;;;24.94;75.68;101136.06;7364714;19;21062;-68
2023/09/09 00:41:18;;;;;;;8.88;5.57;;;;;;;24.95;75.75;101144.97;7364951;19;20022;-70
2023/09/09 00:43:45;;;;;;;10.25;5.70;;;;;;;24.94;75.74;101138.75;7364570;19;20014;-67
2023/09/09 00:46:15;;;;;;;10.23;5.35;;;;;;;24.93;75.48;101142.53;7361624;19;20102;-67
2023/09/09 00:48:43;;;;;;;13.00;5.93;;;;;;;24.90;75.39;101134.91;7363483;19;20024;-67
2023/09/09 00:51:11;;;;;;;10.98;6.18;;;;;;;24.87;75.66;101139.94;7360242;19;20129;-67
2023/09/09 00:53:40;;;;;;;8.98;5.85;;;;;;;24.84;75.41;101141.22;7362510;19;20565;-67
2023/09/09 00:56:08;;;;;;;10.32;6.50;;;;;;;24.85;76.96;101145.53;7357473;19;20735;-67
2023/09/09 00:58:36;;;;;;;12.02;5.65;;;;;;;24.84;76.67;101137.72;7363288;19;20037;-67
2023/09/09 01:01:03;;;;;;;12.82;6.30;;;;;;;24.81;76.10;101138.19;7362360;19;20029;-67
2023/09/09 01:03:30;;;;;;;13.30;6.68;;;;;;;24.79;76.39;101137.63;7360436;19;20625;-67
2023/09/09 01:05:59;;;;;;;12.27;6.88;;;;;;;24.76;76.09;101128.13;7356902;19;20348;-69
2023/09/09 01:08:28;;;;;;;13.13;7.43;;;;;;;24.76;76.32;101130.81;7364838;19;20028;-67
2023/09/09 01:10:56;;;;;;;15.27;7.13;;;;;;;24.73;75.69;101125.94;7358771;19;21619;-68
2023/09/09 01:13:24;;;;;;;11.48;7.22;;;;;;;24.72;76.39;101126.97;7359849;19;20082;-67
2023/09/09 01:15:52;;;;;;;13.52;7.43;;;;;;;24.71;76.73;101119.97;7361043;19;20491;-68
2023/09/09 01:18:20;;;;;;;13.20;7.70;;;;;;;24.70;76.00;101118.31;7359279;19;20089;-68
2023/09/09 01:20:59;;;;;;;14.23;7.85;;;;;;;24.70;76.53;101123.69;7358734;19;20042;-67
2023/09/09 01:23:27;;;;;;;15.88;8.20;;;;;;;24.66;75.61;101130.63;7355558;19;20021;-68
2023/09/09 01:25:54;;;;;;;15.35;8.10;;;;;;;24.63;75.98;101123.03;7355474;19;20795;-68
2023/09/09 01:28:22;;;;;;;16.38;8.68;;;;;;;24.60;76.73;101121.63;7362910;19;20901;-67
2023/09/09 01:30:50;;;;;;;14.93;9.43;;;;;;;24.58;76.36;101120.25;7360798;19;20019;-67
2023/09/09 01:33:17;;;;;;;15.35;9.45;;;;;;;24.58;76.87;101122.94;7363010;19;20018;-66
2023/09/09 01:35:46;;;;;;;17.98;8.88;;;;;;;24.57;76.51;101119.41;7357310;19;20793;-67
2023/09/09 01:38:13;;;;;;;16.88;8.88;;;;;;;24.58;76.35;101125.63;7355916;19;20044;-67
2023/09/09 01:40:41;;;;;;;13.93;8.35;;;;;;;24.56;76.52;101127.72;7359458;19;20017;-67
2023/09/09 01:43:08;;;;;;;14.18;8.35;;;;;;;24.55;76.29;101118.00;7360780;19;20014;-67
2023/09/09 01:45:35;;;;;;;14.02;8.93;;;;;;;24.55;76.27;101116.13;7360605;19;20591;-67
2023/09/09 01:48:04;;;;;;;16.98;8.85;;;;;;;24.53;76.18;101112.06;7361857;19;20019;-67
2023/09/09 01:50:32;;;;;;;15.75;9.82;;;;;;;24.51;76.48;101111.47;7357151;19;20018;-66
2023/09/09 01:53:00;;;;;;;14.30;8.68;;;;;;;24.48;76.39;101118.13;7360961;19;20960;-68
2023/09/09 01:55:27;;;;;;;14.45;7.72;;;;;;;24.45;76.64;101109.72;7357658;19;20090;-67
2023/09/09 01:57:55;;;;;;;12.75;8.40;;;;;;;24.44;77.07;101116.16;7359719;19;20010;-67
2023/09/09 02:00:22;;;;;;;12.23;8.38;;;;;;;24.40;77.33;101121.19;7361322;19;20026;-67
2023/09/09 02:02:49;;;;;;;14.10;8.45;;;;;;;24.38;77.80;101123.28;7362159;19;20018;-67
2023/09/09 02:05:16;;;;;;;15.88;8.32;;;;;;;24.37;77.37;101118.16;7357198;19;20018;-67
2023/09/09 02:07:43;;;;;;;14.38;7.80;;;;;;;24.34;77.71;101119.44;7358610;19;20018;-67
2023/09/09 02:10:10;;;;;;;15.48;7.90;;;;;;;24.34;77.49;101121.31;7359460;19;20094;-67
2023/09/09 02:12:39;;;;;;;12.02;7.43;;;;;;;24.34;77.60;101118.63;7357677;19;20024;-70
2023/09/09 02:15:09;;;;;;;13.73;8.05;;;;;;;24.32;77.56;101123.44;7354734;19;20094;-67
2023/09/09 02:17:36;;;;;;;12.50;7.78;;;;;;;24.28;77.39;101115.81;7359138;19;20013;-66
2023/09/09 02:20:06;;;;;;;12.32;6.65;;;;;;;24.25;77.33;101118.19;7359636;19;20010;-68
2023/09/09 02:22:33;;;;;;;11.63;7.63;;;;;;;24.24;78.18;101114.66;7355934;19;20025;-69
2023/09/09 02:25:02;;;;;;;9.63;6.72;;;;;;;24.24;78.10;101113.84;7353174;19;20448;-66
2023/09/09 02:27:29;;;;;;;12.63;7.15;;;;;;;24.20;78.16;101118.88;7356500;19;20044;-67
2023/09/09 02:29:56;;;;;;;12.93;7.47;;;;;;;24.18;78.28;101120.97;7359066;19;20661;-67
2023/09/09 02:32:24;;;;;;;13.75;7.45;;;;;;;24.17;78.33;101110.47;7356416;19;20694;-66
2023/09/09 02:34:51;;;;;;;11.45;6.97;;;;;;;24.15;78.08;101107.97;7350001;19;20022;-66
2023/09/09 02:37:21;;;;;;;11.60;6.25;;;;;;;24.14;78.53;101106.34;7354064;19;20898;-66
2023/09/09 02:39:51;;;;;;;9.60;6.57;;;;;;;24.13;78.26;101112.78;7361397;19;20019;-67
2023/09/09 02:42:20;;;;;;;14.32;6.18;;;;;;;24.14;77.79;101102.81;7357887;19;20495;-67
2023/09/09 02:44:51;;;;;;;10.40;6.70;;;;;;;24.13;77.92;101109.25;7360177;19;20548;-67
2023/09/09 02:47:19;;;;;;;12.95;7.03;;;;;;;24.11;78.62;101108.69;7356738;19;20010;-66
2023/09/09 02:49:49;;;;;;;9.27;6.20;;;;;;;24.12;78.51;101104.97;7356659;19;20127;-66
2023/09/09 02:52:18;;;;;;;11.65;6.03;;;;;;;24.10;77.94;101107.06;7358511;19;20015;-67
2023/09/09 02:54:45;;;;;;;9.50;6.47;;;;;;;24.07;78.07;101100.28;7359772;19;20030;-67
2023/09/09 02:57:12;;;;;;;11.73;6.72;;;;;;;24.04;78.67;101103.44;7354291;19;20486;-67
2023/09/09 02:59:40;;;;;;;9.65;6.50;;;;;;;24.06;80.08;101101.34;7356321;19;20018;-67
2023/09/09 03:02:07;;;;;;;10.80;5.93;;;;;;;24.06;79.57;101101.34;7357316;19;20089;-68
2023/09/09 03:04:34;;;;;;;10.60;6.05;;;;;;;24.04;78.73;101107.97;7359029;19;20021;-66
2023/09/09 03:07:01;;;;;;;9.77;6.20;;;;;;;24.02;78.50;101102.03;7356108;19;20014;-67
2023/09/09 03:09:29;;;;;;;11.25;5.97;;;;;;;24.00;78.71;101109.50;7359513;19;20014;-67
2023/09/09 03:11:57;;;;;;;9.10;6.32;;;;;;;23.95;78.99;101096.78;7354534;19;20006;-66
2023/09/09 03:14:24;;;;;;;8.95;5.88;;;;;;;23.93;79.33;101100.72;7358337;19;20014;-67
2023/09/09 03:16:51;;;;;;;7.45;5.90;;;;;;;23.91;79.63;101094.78;7353230;19;20019;-67
2023/09/09 03:19:19;;;;;;;10.48;6.40;;;;;;;23.89;80.10;101095.00;7358486;19;20011;-70
2023/09/09 03:21:47;;;;;;;8.70;6.30;;;;;;;23.88;79.57;101093.38;7357928;19;20022;-67
2023/09/09 03:24:14;;;;;;;10.35;6.25;;;;;;;23.86;79.60;101090.13;7357331;19;20494;-67
2023/09/09 03:26:41;;;;;;;9.73;6.18;;;;;;;23.85;79.32;101091.16;7352362;19;21137;-68
2023/09/09 03:29:09;;;;;;;10.35;6.03;;;;;;;23.84;80.08;101084.13;7359657;19;20027;-66
2023/09/09 03:31:36;;;;;;;13.30;6.45;;;;;;;23.81;79.99;101081.94;7355778;19;20046;-66
2023/09/09 03:34:03;;;;;;;11.95;6.03;;;;;;;23.79;79.69;101079.47;7357869;19;20534;-68
2023/09/09 03:36:34;;;;;;;9.77;6.18;;;;;;;23.78;79.52;101077.81;7352625;19;20014;-68
2023/09/09 03:39:03;;;;;;;9.20;6.28;;;;;;;23.79;79.27;101073.28;7359902;19;20022;-67
2023/09/09 03:41:30;;;;;;;11.20;6.18;;;;;;;23.76;79.34;101082.63;7357520;19;20010;-67
2023/09/09 03:43:58;;;;;;;9.63;6.13;;;;;;;23.76;79.88;101081.81;7364136;19;20270;-67
2023/09/09 03:46:26;;;;;;;7.50;5.60;;;;;;;23.74;79.81;101076.66;7368907;19;20029;-67
2023/09/09 03:48:53;;;;;;;9.30;6.35;;;;;;;23.73;80.05;101075.03;7369723;19;20481;-67
2023/09/09 03:51:20;;;;;;;9.15;6.28;;;;;;;23.72;79.74;101072.59;7373071;19;20054;-67
2023/09/09 03:53:47;;;;;;;8.45;5.35;;;;;;;23.71;79.74;101074.44;7374013;19;20653;-67
2023/09/09 03:56:16;;;;;;;9.50;6.05;;;;;;;23.70;79.96;101070.13;7368726;19;20024;-68
2023/09/09 03:58:44;;;;;;;10.40;5.65;;;;;;;23.70;79.95;101070.13;7370286;19;20010;-66
2023/09/09 04:01:12;;;;;;;11.35;6.18;;;;;;;23.69;79.57;101070.34;7368802;19;20051;-69
2023/09/09 04:03:40;;;;;;;9.70;5.03;;;;;;;23.67;79.52;101070.56;7371297;19;20568;-67
2023/09/09 04:06:10;;;;;;;9.93;5.68;;;;;;;23.66;79.29;101071.66;7366357;19;20904;-67
2023/09/09 04:08:39;;;;;;;8.98;5.75;;;;;;;23.64;79.73;101071.06;7369309;19;20025;-68
2023/09/09 04:11:06;;;;;;;8.32;5.40;;;;;;;23.62;79.00;101070.44;7366576;19;20059;-68
2023/09/09 04:13:37;;;;;;;6.82;5.57;;;;;;;23.61;79.50;101076.09;7372198;19;20082;-68
2023/09/09 04:16:05;;;;;;;9.77;6.13;;;;;;;23.61;79.57;101076.09;7366423;19;20891;-68
2023/09/09 04:18:33;;;;;;;9.15;5.78;;;;;;;23.59;79.76;101076.31;7370214;19;20022;-67
2023/09/09 04:21:12;;;;;;;8.45;5.78;;;;;;;23.57;79.58;101078.38;7367703;19;20922;-68
2023/09/09 04:23:39;;;;;;;10.05;6.07;;;;;;;23.54;79.38;101078.88;7369345;19;20660;-67
2023/09/09 04:26:07;;;;;;;7.57;5.70;;;;;;;23.50;79.07;101082.25;7367167;19;20030;-67
2023/09/09 04:28:34;;;;;;;9.80;6.07;;;;;;;23.47;79.54;101090.78;7368946;19;20022;-68
2023/09/09 04:31:02;;;;;;;9.02;6.10;;;;;;;23.43;79.85;101088.50;7367331;19;22016;-68
2023/09/09 04:33:29;;;;;;;7.97;5.57;;;;;;;23.42;79.88;101088.72;7369332;19;20759;-66
2023/09/09 04:35:56;;;;;;;8.18;5.28;;;;;;;23.41;80.35;101096.00;7364228;19;20059;-68
2023/09/09 04:38:24;;;;;;;9.32;5.50;;;;;;;23.40;79.61;101097.03;7367115;19;20010;-67
2023/09/09 04:40:51;;;;;;;9.82;5.80;;;;;;;23.38;80.31;101093.75;7369489;19;20724;-67
2023/09/09 04:43:18;;;;;;;7.90;5.25;;;;;;;23.37;80.13;101092.13;7372220;19;20007;-67
2023/09/09 04:45:45;;;;;;;8.60;5.78;;;;;;;23.37;79.95;101093.97;7370507;19;20014;-66
2023/09/09 04:48:12;;;;;;;10.77;5.40;;;;;;;23.36;79.90;101084.31;7367284;19;20014;-67
2023/09/09 04:50:39;;;;;;;8.80;6.22;;;;;;;23.36;79.59;101093.19;7366933;19;20018;-68
2023/09/09 04:53:07;;;;;;;8.43;6.13;;;;;;;23.35;79.93;101088.84;7368562;19;20097;-68
2023/09/09 04:55:34;;;;;;;8.57;5.72;;;;;;;23.36;80.08;101093.19;7362535;19;20010;-67
2023/09/09 04:58:02;;;;;;;11.32;5.75;;;;;;;23.36;79.72;101095.06;7360347;19;20023;-66
2023/09/09 05:00:29;;;;;;;7.90;5.93;;;;;;;23.35;80.03;101096.91;7362175;19;20018;-67
2023/09/09 05:02:57;;;;;;;8.60;5.68;;;;;;;23.34;79.75;101089.91;7360573;19;20025;-68
2023/09/09 05:05:24;;;;;;;9.57;5.93;;;;;;;23.31;79.88;101100.28;7362884;19;20143;-67
2023/09/09 05:07:51;;;;;;;6.40;5.35;;;;;;;23.29;79.61;101105.06;7361543;19;20015;-67
2023/09/09 05:10:19;;;;;;;6.97;5.03;;;;;;;23.26;79.78;101098.28;7361557;19;20042;-67
2023/09/09 05:12:47;;;;;;;12.18;5.70;;;;;;;23.23;79.54;101104.13;7360014;19;20048;-67
2023/09/09 05:15:14;;;;;;;9.07;5.47;;;;;;;23.22;79.90;101099.78;7363571;19;20022;-66
2023/09/09 05:17:41;;;;;;;7.32;5.47;;;;;;;23.21;80.27;101100.03;7360891;19;20532;-67
2023/09/09 05:20:10;;;;;;;8.00;5.13;;;;;;;23.20;80.27;101098.38;7361463;19;20022;-68
2023/09/09 05:22:37;;;;;;;9.02;5.43;;;;;;;23.20;79.84;101099.22;7360229;19;20006;-68
2023/09/09 05:25:05;;;;;;;9.85;6.20;;;;;;;23.18;79.64;101098.63;7361503;19;20106;-67
2023/09/09 05:27:32;;;;;;;8.07;5.80;;;;;;;23.18;79.33;101103.97;7356022;19;20019;-69
2023/09/09 05:29:59;;;;;;;8.45;5.80;;;;;;;23.17;79.61;101106.88;7358820;19;20043;-68
2023/09/09 05:32:26;;;;;;;10.40;5.40;;;;;;;23.15;79.24;101107.13;7361580;19;20014;-67
2023/09/09 05:34:53;;;;;;;8.10;5.25;;;;;;;23.15;78.73;101100.94;7363059;19;20036;-68
2023/09/09 05:37:21;;;;;;;8.15;5.13;;;;;;;23.13;78.78;101111.91;7358988;19;20518;-67
2023/09/09 05:39:48;;;;;;;8.90;5.47;;;;;;;23.12;78.54;101112.94;7362297;19;20016;-67
2023/09/09 05:42:15;;;;;;;8.57;5.20;;;;;;;23.10;78.16;101117.75;7360395;19;20018;-66
2023/09/09 05:44:42;;;;;;;9.88;5.55;;;;;;;23.11;78.01;101124.72;7362239;19;20696;-67
2023/09/09 05:47:10;;;;;;;9.90;5.63;;;;;;;23.10;77.95;101120.44;7359710;19;20010;-67
2023/09/09 05:49:37;;;;;;;8.82;5.78;;;;;;;23.12;77.86;101130.91;7361568;19;20024;-67
2023/09/09 05:52:07;;;;;;;8.77;5.05;;;;;;;23.12;78.21;101125.56;7362143;19;20026;-68
2023/09/09 05:54:34;;;;;;;9.73;5.65;;;;;;;23.14;78.58;101118.91;7361710;19;20010;-68
2023/09/09 05:57:02;;;;;;;10.65;6.10;;;;;;;23.15;78.72;101114.38;7360975;19;20030;-69
2023/09/09 05:59:29;;;;;;;9.63;5.55;;;;;;;23.18;78.47;101124.66;7360919;19;20027;-68
2023/09/09 06:01:56;;;;;;;9.57;5.57;;;;;;;23.21;79.23;101132.25;7362392;19;20007;-66
2023/09/09 06:04:23;;;;;;;8.32;5.45;;;;;;;23.20;78.82;101128.75;7357706;19;20027;-66
2023/09/09 06:06:51;;;;;;;10.43;5.47;;;;;;;23.23;79.47;101132.84;7357938;19;20034;-67
2023/09/09 06:09:18;;;;;;;11.02;5.53;;;;;;;23.23;79.17;101136.34;7359990;19;21063;-68
2023/09/09 06:11:45;;;;;;;8.65;6.32;;;;;;;23.24;79.12;101138.00;7361774;19;20007;-66
2023/09/09 06:14:13;;;;;;;9.15;5.82;;;;;;;23.26;79.08;101137.78;7362784;19;20326;-67
2023/09/09 06:16:41;;;;;;;11.07;6.28;;;;;;;23.27;79.41;101142.88;7359672;19;21113;-67
2023/09/09 06:19:08;;;;;;;9.00;6.28;;;;;;;23.28;79.64;101141.03;7358684;19;20029;-68
2023/09/09 06:21:35;;;;;;;8.75;5.57;;;;;;;23.29;79.09;101143.50;7358280;19;20011;-68
2023/09/09 06:24:03;;;;;;;10.15;6.03;;;;;;;23.29;79.26;101146.19;7359565;19;20026;-67
2023/09/09 06:26:33;;;;;;;11.32;6.18;;;;;;;23.32;79.43;101142.19;7360401;19;20829;-69
2023/09/09 06:29:00;;;;;;;9.27;5.90;;;;;;;23.32;79.07;101148.41;7353216;19;20029;-67
2023/09/09 06:31:28;;;;;;;8.30;5.90;;;;;;;23.32;78.40;101139.50;7359251;19;20018;-68
2023/09/09 06:33:55;;;;;;;10.05;6.35;;;;;;;23.33;78.54;101143.84;7359188;19;20010;-67
2023/09/09 06:36:23;;;;;;;10.05;6.35;;;;;;;23.34;78.35;101150.88;7359058;19;20106;-67
2023/09/09 06:38:50;;;;;;;8.60;5.65;;;;;;;23.33;78.75;101149.22;7361262;19;21215;-67
2023/09/09 06:41:17;;;;;;;9.20;5.82;;;;;;;23.33;78.92;101149.22;7360687;19;20042;-67
2023/09/09 06:43:44;;;;;;;10.25;6.13;;;;;;;23.33;78.33;101144.66;7359946;19;20014;-67
2023/09/09 06:46:11;;;;;;;11.82;6.10;;;;;;;23.33;78.12;101152.72;7358384;19;20023;-67
2023/09/09 06:48:39;;;;;;;11.10;6.03;;;;;;;23.34;77.63;101159.75;7359238;19;21709;-68
2023/09/09 06:51:06;;;;;;;11.10;6.10;;;;;;;23.37;77.72;101163.81;7357848;19;21867;-68
2023/09/09 06:53:33;;;;;;;9.10;6.03;;;;;;;23.39;77.56;101159.06;7359946;19;20017;-67
2023/09/09 06:56:01;;;;;;;8.75;6.05;;;;;;;23.42;77.73;101159.41;7357046;19;20086;-66
2023/09/09 06:58:28;;;;;;;10.45;6.00;;;;;;;23.45;77.28;101160.88;7358876;19;20638;-70
2023/09/09 07:00:55;;;;;;;10.00;6.35;;;;;;;23.48;76.73;101162.25;7356349;19;20319;-68
2023/09/09 07:03:22;;;;;;;10.70;5.80;;;;;;;23.49;76.18;101153.16;7357544;19;20006;-67
2023/09/09 07:05:50;;;;;;;10.80;6.53;;;;;;;23.50;76.88;101152.94;7358278;19;20019;-68
2023/09/09 07:08:17;;;;;;;9.77;6.05;;;;;;;23.52;76.27;101152.72;7356460;19;20455;-66
2023/09/09 07:10:50;;;;;;;8.73;5.70;;;;;;;23.53;75.69;101144.41;7357678;19;20027;-68
2023/09/09 07:13:18;;;;;;;8.00;5.28;;;;;;;23.55;75.80;101138.81;7359228;19;20045;-68
2023/09/09 07:15:46;;;;;;;10.95;6.07;;;;;;;23.59;76.21;101137.28;7355319;19;20018;-68
2023/09/09 07:18:13;;;;;;;9.30;5.97;;;;;;;23.62;76.16;101140.31;7353524;19;20018;-68
2023/09/09 07:20:42;;;;;;;10.52;6.47;;;;;;;23.65;76.13;101155.19;7356476;19;20018;-67
2023/09/09 07:23:09;;;;;;;10.68;6.20;;;;;;;23.67;76.38;101148.50;7362123;19;20006;-67
2023/09/09 07:25:36;;;;;;;9.82;5.95;;;;;;;23.70;76.14;101144.56;7356303;19;20148;-68
2023/09/09 07:28:04;;;;;;;8.93;5.35;;;;;;;23.72;76.17;101155.91;7359057;19;20972;-67
2023/09/09 07:30:33;;;;;;;8.85;6.13;;;;;;;23.75;75.16;101153.56;7353306;19;20022;-68
2023/09/09 07:33:00;;;;;;;10.18;5.75;;;;;;;23.76;74.93;101152.53;7357480;19;20024;-67
2023/09/09 07:35:27;;;;;;;7.50;5.68;;;;;;;23.80;74.97;101147.50;7355804;19;20355;-67
2023/09/09 07:37:54;;;;;;;9.38;5.70;;;;;;;23.83;75.14;101149.72;7354483;19;20025;-67
2023/09/09 07:40:22;;;;;;;10.27;5.40;;;;;;;23.85;74.69;101158.38;7360038;19;20129;-67
2023/09/09 07:42:50;;;;;;;9.10;6.18;;;;;;;23.88;75.49;101163.28;7330381;19;20018;-66
2023/09/09 07:45:19;;;;;;;8.93;5.63;;;;;;;23.95;76.21;101157.78;7355477;19;20498;-67
2023/09/09 07:47:47;;;;;;;10.85;5.88;;;;;;;23.99;75.77;101159.78;7343404;19;20748;-66
2023/09/09 07:50:14;;;;;;;8.30;5.40;;;;;;;24.02;75.90;101164.72;7359383;19;21109;-68
2023/09/09 07:52:42;;;;;;;9.50;5.38;;;;;;;24.07;76.18;101164.84;7354633;19;20745;-67
2023/09/09 07:55:09;;;;;;;11.65;5.80;;;;;;;24.10;76.53;101160.84;7353925;19;20027;-69
2023/09/09 07:57:36;;;;;;;9.00;5.50;;;;;;;24.12;76.26;101162.25;7354304;19;20044;-68
2023/09/09 08:00:07;;;;;;;9.10;5.80;;;;;;;24.16;75.76;101160.72;7356530;19;20018;-66
2023/09/09 08:02:36;;;;;;;6.93;4.88;;;;;;;24.19;76.46;101162.97;7354549;19;20034;-67
2023/09/09 08:05:06;;;;;;;11.95;4.50;;;;;;;24.23;74.99;101160.63;7355221;19;20015;-68
2023/09/09 08:07:34;;;;;;;7.15;4.88;;;;;;;24.26;74.29;101161.00;7352648;19;20022;-67
2023/09/09 08:10:01;;;;;;;14.48;4.85;;;;;;;24.31;74.31;101165.66;7357824;19;20018;-67
2023/09/09 08:12:29;;;;;;;10.10;4.97;;;;;;;24.35;73.20;101166.00;7354556;19;20011;-68
2023/09/09 08:15:07;;;;;;;10.50;5.32;;;;;;;24.39;74.09;101162.59;7354804;19;20014;-68
2023/09/09 08:17:35;;;;;;;7.88;5.35;;;;;;;24.45;74.46;101168.91;7354424;19;20026;-67
2023/09/09 08:20:07;;;;;;;8.85;5.30;;;;;;;24.54;74.20;101167.50;7356125;19;20391;-67
2023/09/09 08:22:35;;;;;;;;;;;;;;;24.60;73.38;101169.25;7352437;19;20015;-66
2023/09/09 08:25:03;;;;;;;11.90;4.55;;;;;;;24.61;72.92;101178.97;7356777;19;19919;-69
2023/09/09 08:27:30;;;;;;;9.18;4.50;;;;;;;24.65;72.32;101169.34;7339270;19;20011;-69
2023/09/09 08:29:58;;;;;;;9.68;4.72;;;;;;;24.69;72.99;101170.50;7354202;19;20022;-67
2023/09/09 08:32:25;;;;;;;10.13;5.18;;;;;;;24.73;72.93;101169.00;7358224;19;20082;-67
2023/09/09 08:34:54;;;;;;;8.18;4.93;;;;;;;24.78;72.47;101179.06;7357924;19;20026;-66
2023/09/09 08:37:21;;;;;;;10.68;4.57;;;;;;;24.82;71.92;101177.53;7357730;19;20704;-67
2023/09/09 08:39:54;;;;;;;11.23;4.85;;;;;;;24.85;71.59;101175.16;7364114;19;20386;-67
2023/09/09 08:42:31;;;;;;;;;;;;;;;24.90;71.69;101169.91;7357467;19;20054;-66
2023/09/09 08:45:12;;;;;;;9.43;5.10;;;;;;;24.93;71.12;101174.03;7356125;19;19977;-68
2023/09/09 08:47:41;;;;;;;7.43;4.30;;;;;;;24.97;70.69;101176.00;7357862;19;20018;-67
2023/09/09 08:50:10;;;;;;;8.48;4.22;;;;;;;25.01;71.14;101171.75;7360216;19;20037;-68
2023/09/09 08:52:40;;;;;;;8.65;4.85;;;;;;;25.05;70.97;101170.22;7360680;19;20490;-67
2023/09/09 08:55:08;;;;;;;10.75;5.05;;;;;;;25.10;70.92;101170.31;7361348;19;20045;-67
2023/09/09 08:57:36;;;;;;;8.65;4.90;;;;;;;25.16;69.11;101173.09;7354431;19;20872;-66
2023/09/09 09:00:04;;;;;;;8.38;4.80;;;;;;;25.22;69.60;101164.88;7362732;19;20014;-67
2023/09/09 09:02:34;;;;;;;8.82;4.65;;;;;;;25.28;69.54;101165.81;7351125;19;20021;-67
2023/09/09 09:05:04;;;;;;;9.02;4.68;;;;;;;25.33;69.63;101171.28;7359559;19;20108;-67
2023/09/09 09:07:34;;;;;;;6.78;3.97;;;;;;;25.39;69.07;101171.16;7358333;19;20417;-68
2023/09/09 09:10:02;;;;;;;9.57;4.05;;;;;;;25.44;70.81;101168.53;7359012;19;20029;-67
2023/09/09 09:12:33;;;;;;;7.53;4.38;;;;;;;25.48;70.32;101176.94;7361703;19;21631;-67
2023/09/09 09:15:01;;;;;;;8.82;4.57;;;;;;;25.53;68.63;101172.47;7363568;19;20040;-67
2023/09/09 09:17:30;;;;;;;11.05;4.50;;;;;;;25.60;68.79;101171.53;7360734;19;20017;-68
2023/09/09 09:19:58;;;;;;;7.80;4.82;;;;;;;25.66;69.15;101170.53;7363081;19;20094;-68
2023/09/09 09:22:26;;;;;;;7.10;4.55;;;;;;;25.72;68.64;101172.25;7359010;19;20111;-68
2023/09/09 09:24:53;;;;;;;6.82;3.67;;;;;;;25.76;66.92;101176.09;7362158;19;20325;-67
2023/09/09 09:27:21;;;;;;;6.78;3.33;;;;;;;25.82;66.07;101172.44;7356146;19;20029;-67
2023/09/09 09:29:48;;;;;;;5.80;3.30;;;;;;;25.90;64.87;101174.72;7361827;19;20028;-67
2023/09/09 09:32:16;;;;;;;9.60;3.10;;;;;;;25.95;65.20;101169.41;7350956;19;20035;-67
2023/09/09 09:34:46;;;;;;;7.35;3.50;;;;;;;26.02;63.68;101175.44;7357945;19;20070;-67
2023/09/09 09:37:15;;;;;;;9.60;3.22;;;;;;;26.12;64.21;101180.19;7355127;19;20010;-67
2023/09/09 09:39:44;;;;;;;6.22;2.85;;;;;;;26.20;63.70;101169.81;7359569;19;20011;-67
2023/09/09 09:42:12;;;;;;;6.38;3.00;;;;;;;26.26;62.74;101176.91;7355416;19;20677;-67
2023/09/09 09:44:40;;;;;;;6.95;3.03;;;;;;;26.32;63.17;101181.31;7358264;19;20026;-67
2023/09/09 09:47:10;;;;;;;9.85;3.08;;;;;;;26.39;64.40;101175.75;7355373;19;20010;-67
2023/09/09 09:49:40;;;;;;;6.38;3.03;;;;;;;26.43;64.13;101167.97;7358336;19;20543;-67
2023/09/09 09:52:08;;;;;;;7.25;3.35;;;;;;;26.46;62.96;101165.63;7356252;19;20022;-68
2023/09/09 09:54:38;;;;;;;5.57;3.00;;;;;;;26.53;61.85;101174.31;7359142;19;20051;-68
2023/09/09 09:57:06;;;;;;;4.22;2.95;;;;;;;26.59;62.22;101169.81;7355736;19;20018;-66
2023/09/09 09:59:36;;;;;;;5.35;2.90;;;;;;;26.65;61.61;101171.53;7358163;19;20316;-67
2023/09/09 10:02:03;;;;;;;5.38;2.55;;;;;;;26.71;61.89;101174.03;7357194;19;20025;-68
2023/09/09 10:04:42;;;;;;;8.25;2.88;;;;;;;26.74;62.09;101168.13;7359307;19;20018;-68
2023/09/09 10:07:23;;;;;;;5.32;2.80;;;;;;;26.78;61.14;101168.44;7356610;19;20018;-68
2023/09/09 10:09:56;;;;;;;8.75;3.38;;;;;;;26.84;61.32;101167.44;7356323;19;20033;-67
2023/09/09 10:12:33;;;;;;;5.20;2.83;;;;;;;26.89;60.80;101169.41;7357696;19;20044;-68
2023/09/09 10:15:16;;;;;;;7.88;3.17;;;;;;;26.95;60.97;101174.63;7361161;19;20022;-68
2023/09/09 10:17:44;;;;;;;4.93;2.88;;;;;;;27.02;60.52;101166.34;7356788;19;20662;-68
2023/09/09 10:20:13;;;;;;;6.35;2.70;;;;;;;27.08;60.62;101165.28;7359744;19;20512;-67
2023/09/09 10:22:44;;;;;;;5.85;2.42;;;;;;;27.13;60.19;101166.16;7356292;19;20047;-68
2023/09/09 10:25:13;;;;;;;4.43;2.80;;;;;;;27.18;59.72;101166.22;7351289;19;20010;-68
2023/09/09 10:27:41;;;;;;;6.65;2.83;;;;;;;27.23;59.50;101160.06;7356286;19;20030;-67
2023/09/09 10:30:10;;;;;;;6.88;2.42;;;;;;;27.30;58.85;101171.50;7355022;19;20021;-67
2023/09/09 10:32:38;;;;;;;7.60;2.85;;;;;;;27.35;59.59;101163.44;7348070;19;20363;-67
2023/09/09 10:35:07;;;;;;;4.25;2.97;;;;;;;27.40;58.22;101160.78;7354465;19;20042;-67
2023/09/09 10:37:37;;;;;;;5.82;2.97;;;;;;;27.46;58.38;101167.88;7354286;19;20735;-67
2023/09/09 10:40:06;;;;;;;6.18;2.95;;;;;;;27.51;58.77;101159.84;7357522;19;20668;-68
2023/09/09 10:42:38;;;;;;;6.93;3.15;;;;;;;27.56;58.26;101156.34;7356914;19;20021;-67
2023/09/09 10:45:23;;;;;;;5.93;3.17;;;;;;;27.63;59.21;101163.16;7354065;19;20044;-67
2023/09/09 10:48:01;;;;;;;3.53;2.65;;;;;;;27.68;58.30;101159.72;7352158;19;20026;-67
2023/09/09 10:50:40;;;;;;;8.73;3.60;;;;;;;27.75;58.22;101159.47;7357571;19;20445;-67
2023/09/09 10:53:14;;;;;;;5.13;3.00;;;;;;;27.80;58.67;101151.41;7354813;19;20085;-67
2023/09/09 10:55:42;;;;;;;7.25;3.10;;;;;;;27.82;58.68;101152.78;7356738;19;20022;-67
2023/09/09 10:58:15;;;;;;;9.55;3.50;;;;;;;27.83;58.51;101148.19;7353167;19;20377;-66
2023/09/09 11:00:46;;;;;;;8.13;3.38;;;;;;;27.84;57.63;101147.91;7358934;19;20321;-68
2023/09/09 11:03:16;;;;;;;5.97;3.05;;;;;;;27.90;57.85;101143.34;7355151;19;20018;-66
2023/09/09 11:05:58;;;;;;;7.93;3.75;;;;;;;27.97;57.18;101144.78;7353617;19;20037;-68
2023/09/09 11:08:30;;;;;;;9.77;3.13;;;;;;;28.04;57.34;101150.75;7356302;19;20022;-67
2023/09/09 11:11:08;;;;;;;9.70;3.10;;;;;;;28.07;55.89;101141.31;7353958;19;20594;-66
2023/09/09 11:13:39;;;;;;;8.45;3.03;;;;;;;28.09;57.79;101137.25;7354876;19;20034;-67
2023/09/09 11:16:07;;;;;;;9.65;4.13;;;;;;;28.11;57.47;101141.59;7356784;19;20022;-68
2023/09/09 11:18:35;;;;;;;7.43;3.10;;;;;;;28.14;57.35;101136.50;7356352;19;20018;-67
2023/09/09 11:21:04;;;;;;;22.20;3.22;;;;;;;28.18;56.89;101134.94;7354060;19;20108;-67
2023/09/09 11:23:33;;;;;;;6.47;2.92;;;;;;;28.24;56.96;101131.16;7356909;19;20019;-67
2023/09/09 11:26:02;;;;;;;10.18;3.30;;;;;;;28.30;56.84;101130.09;7354524;19;20649;-68
2023/09/09 11:28:29;;;;;;;8.70;3.42;;;;;;;28.34;56.95;101127.72;7355711;19;20677;-68